Time;durP1;ratioP1;P1;durP2;ratioP2;P2;SDS_P1;SDS_P2;PMS_P1;PMS_P2;Temp;Humidity;BMP_temperature;BMP_pressure;BME280_temperature;BME280_humidity;BME280_pressure;Samples;Min_cycle;Max_cycle;Signal;HPM_P1;HPM_P2
2021/07/12 00:02:07;;;;;;;8.02;7.22;;;26.60;66.90;;;;;;5034599;28;20026;-68
2021/07/12 00:04:33;;;;;;;8.32;7.32;;;26.60;66.30;;;;;;5034428;28;20037;-68
2021/07/12 00:06:58;;;;;;;9.45;7.85;;;26.60;66.60;;;;;;5034427;28;20029;-68
2021/07/12 00:09:24;;;;;;;8.52;7.70;;;26.60;66.60;;;;;;5034374;28;20037;-68
2021/07/12 00:11:50;;;;;;;9.00;7.68;;;26.60;66.20;;;;;;5034444;28;20033;-68
2021/07/12 00:14:16;;;;;;;9.95;7.78;;;26.60;66.80;;;;;;5034412;28;20033;-68
2021/07/12 00:16:41;;;;;;;8.77;7.72;;;26.60;67.10;;;;;;5034240;28;20034;-68
2021/07/12 00:19:07;;;;;;;10.95;8.38;;;26.60;67.30;;;;;;5033987;28;20048;-68
2021/07/12 00:21:33;;;;;;;9.10;8.30;;;26.60;67.70;;;;;;5034254;28;20084;-68
2021/07/12 00:23:59;;;;;;;9.90;8.55;;;26.60;68.00;;;;;;5034178;28;20052;-68
2021/07/12 00:26:24;;;;;;;8.82;7.90;;;26.60;68.00;;;;;;5023966;28;20037;-68
2021/07/12 00:28:50;;;;;;;9.52;7.90;;;26.50;68.10;;;;;;5014240;28;20041;-68
2021/07/12 00:31:16;;;;;;;8.85;7.95;;;26.50;68.70;;;;;;5014394;28;20464;-68
2021/07/12 00:33:42;;;;;;;9.65;8.50;;;26.50;68.60;;;;;;5014233;28;20030;-68
2021/07/12 00:36:08;;;;;;;9.57;8.45;;;26.50;68.90;;;;;;5014251;28;20109;-68
2021/07/12 00:38:34;;;;;;;9.85;8.85;;;26.50;68.50;;;;;;5028215;28;20410;-68
2021/07/12 00:41:00;;;;;;;10.02;8.13;;;26.50;68.40;;;;;;5033727;28;20029;-68
2021/07/12 00:43:27;;;;;;;11.65;7.97;;;26.40;68.30;;;;;;5033713;28;20033;-68
2021/07/12 00:45:53;;;;;;;8.60;7.78;;;26.40;67.90;;;;;;5033677;28;20056;-68
2021/07/12 00:48:19;;;;;;;9.23;8.32;;;26.40;67.60;;;;;;5029095;28;20054;-68
2021/07/12 00:50:46;;;;;;;9.25;8.35;;;26.40;67.90;;;;;;5032920;28;20488;-68
2021/07/12 00:53:12;;;;;;;8.18;7.45;;;26.40;67.90;;;;;;5033709;28;20026;-68
2021/07/12 00:55:48;;;;;;;8.40;7.70;;;26.40;68.10;;;;;;5033338;28;20017;-68
2021/07/12 00:58:16;;;;;;;9.15;8.25;;;26.40;67.60;;;;;;5033480;28;20040;-68
2021/07/12 01:00:45;;;;;;;8.65;7.80;;;26.40;67.60;;;;;;5033538;28;20083;-68
2021/07/12 01:03:12;;;;;;;10.40;7.80;;;26.40;67.80;;;;;;5033600;28;20148;-68
2021/07/12 01:05:40;;;;;;;9.55;7.75;;;26.40;67.80;;;;;;5033582;28;20079;-68
2021/07/12 01:08:06;;;;;;;8.77;7.90;;;26.40;67.90;;;;;;5033429;28;20031;-68
2021/07/12 01:10:33;;;;;;;8.57;7.63;;;26.40;68.10;;;;;;5033768;28;20030;-68
2021/07/12 01:13:28;;;;;;;8.75;7.82;;;26.40;68.10;;;;;;5033348;28;20044;-68
2021/07/12 01:16:15;;;;;;;8.65;7.85;;;26.40;68.30;;;;;;5033330;28;20021;-68
2021/07/12 01:19:16;;;;;;;8.82;7.97;;;26.40;68.50;;;;;;5033158;28;20046;-68
2021/07/12 01:21:56;;;;;;;9.35;8.45;;;26.40;68.50;;;;;;5033382;28;20014;-68
2021/07/12 01:24:43;;;;;;;9.95;9.05;;;26.30;68.80;;;;;;5033374;28;20065;-68
2021/07/12 01:27:53;;;;;;;8.43;7.60;;;26.30;68.90;;;;;;5032981;28;20022;-68
2021/07/12 01:30:23;;;;;;;9.07;7.80;;;26.20;69.20;;;;;;5033399;28;20043;-68
2021/07/12 01:33:19;;;;;;;8.47;7.53;;;26.20;69.30;;;;;;5033216;28;20072;-68
2021/07/12 01:36:04;;;;;;;7.82;7.03;;;26.20;68.80;;;;;;5033136;28;20254;-68
2021/07/12 01:39:04;;;;;;;8.13;7.32;;;26.20;68.60;;;;;;5032819;28;20468;-68
2021/07/12 01:41:46;;;;;;;7.57;6.60;;;26.20;68.00;;;;;;5032674;28;20521;-68
2021/07/12 01:44:24;;;;;;;7.75;6.95;;;26.20;67.80;;;;;;5032288;28;20071;-68
2021/07/12 01:47:03;;;;;;;7.90;6.90;;;26.20;67.90;;;;;;5032220;28;20104;-68
2021/07/12 01:49:47;;;;;;;8.15;7.35;;;26.20;67.80;;;;;;5033319;28;20044;-68
2021/07/12 01:52:34;;;;;;;8.43;7.38;;;26.20;67.70;;;;;;5033425;28;20025;-68
2021/07/12 01:55:05;;;;;;;8.48;7.68;;;26.20;67.50;;;;;;5032552;28;20029;-68
2021/07/12 01:57:35;;;;;;;9.07;8.18;;;26.20;68.00;;;;;;5030848;28;20124;-68
2021/07/12 02:00:04;;;;;;;10.93;9.55;;;26.20;68.60;;;;;;5033031;28;20072;-68
2021/07/12 02:02:32;;;;;;;10.98;9.68;;;26.20;69.00;;;;;;5017666;28;20036;-68
2021/07/12 02:05:03;;;;;;;10.50;9.23;;;26.20;69.70;;;;;;5016642;28;20029;-68
2021/07/12 02:07:31;;;;;;;10.95;9.93;;;26.20;70.40;;;;;;5016539;28;20022;-68
2021/07/12 02:10:00;;;;;;;11.25;9.90;;;26.20;70.80;;;;;;5016923;28;20028;-68
2021/07/12 02:12:28;;;;;;;11.70;10.65;;;26.20;71.20;;;;;;5016920;28;20080;-68
2021/07/12 02:14:55;;;;;;;12.02;10.82;;;26.10;71.50;;;;;;5016760;28;20033;-68
2021/07/12 02:17:22;;;;;;;13.10;11.25;;;26.10;72.30;;;;;;5016894;28;20497;-68
2021/07/12 02:19:50;;;;;;;12.15;10.88;;;26.10;72.60;;;;;;5016586;28;20038;-68
2021/07/12 02:22:16;;;;;;;12.25;10.98;;;26.10;72.90;;;;;;5016670;28;20018;-68
2021/07/12 02:24:44;;;;;;;12.77;11.43;;;26.10;73.20;;;;;;5016585;28;20018;-68
2021/07/12 02:27:10;;;;;;;12.02;10.82;;;26.00;73.40;;;;;;5020619;28;20017;-68
2021/07/12 02:29:37;;;;;;;10.57;9.57;;;26.00;73.80;;;;;;5016647;28;20041;-68
2021/07/12 02:32:04;;;;;;;9.63;8.73;;;26.00;73.60;;;;;;5026881;28;20032;-68
2021/07/12 02:34:29;;;;;;;8.88;7.97;;;26.00;72.70;;;;;;5033055;28;20108;-68
2021/07/12 02:36:56;;;;;;;9.32;7.78;;;26.00;72.00;;;;;;5028244;28;20500;-68
2021/07/12 02:39:24;;;;;;;8.65;7.75;;;26.00;71.30;;;;;;5025858;28;20040;-68
2021/07/12 02:41:50;;;;;;;8.38;7.20;;;25.90;70.80;;;;;;5015361;28;20033;-68
2021/07/12 02:44:17;;;;;;;8.98;8.13;;;26.00;70.60;;;;;;5016184;28;20022;-68
2021/07/12 02:46:43;;;;;;;8.35;7.55;;;26.00;70.50;;;;;;5016038;28;20029;-68
2021/07/12 02:49:10;;;;;;;7.93;7.22;;;26.00;70.20;;;;;;5027199;28;20029;-68
2021/07/12 02:51:40;;;;;;;8.18;7.18;;;26.00;70.00;;;;;;5035896;28;20559;-68
2021/07/12 02:54:08;;;;;;;9.77;7.85;;;26.10;69.70;;;;;;5035974;28;20044;-68
2021/07/12 02:56:34;;;;;;;8.40;7.60;;;26.10;69.90;;;;;;5019456;28;20109;-68
2021/07/12 02:58:59;;;;;;;8.68;7.78;;;26.10;69.70;;;;;;5015023;28;20149;-68
2021/07/12 03:01:25;;;;;;;8.95;7.90;;;26.10;69.70;;;;;;5015634;28;20022;-68
2021/07/12 03:03:51;;;;;;;10.25;8.05;;;26.10;69.60;;;;;;5014737;28;20631;-68
2021/07/12 03:06:18;;;;;;;9.38;7.80;;;26.10;69.60;;;;;;5014459;28;20044;-68
2021/07/12 03:08:56;;;;;;;8.88;7.45;;;26.20;69.40;;;;;;5014772;28;20056;-68
2021/07/12 03:11:25;;;;;;;8.40;7.60;;;26.20;69.30;;;;;;5015477;28;20080;-68
2021/07/12 03:14:01;;;;;;;9.57;7.85;;;26.20;69.50;;;;;;5015727;28;20117;-68
2021/07/12 03:16:28;;;;;;;9.15;8.25;;;26.20;69.20;;;;;;5015745;28;20034;-68
2021/07/12 03:19:00;;;;;;;8.32;7.53;;;26.30;69.30;;;;;;5015211;28;20050;-68
2021/07/12 03:21:26;;;;;;;9.23;8.20;;;26.30;69.20;;;;;;5015148;28;20026;-68
2021/07/12 03:23:55;;;;;;;11.25;8.05;;;26.40;69.20;;;;;;5015723;28;20586;-68
2021/07/12 03:26:23;;;;;;;9.57;8.57;;;26.40;68.90;;;;;;5028326;28;20056;-68
2021/07/12 03:28:52;;;;;;;9.15;8.32;;;26.50;68.90;;;;;;5025745;28;20026;-68
2021/07/12 03:31:22;;;;;;;9.65;8.38;;;26.60;68.60;;;;;;5015611;28;20069;-68
2021/07/12 03:33:54;;;;;;;9.60;8.70;;;26.70;68.60;;;;;;5015536;28;20080;-68
2021/07/12 03:36:21;;;;;;;10.23;8.95;;;26.80;68.80;;;;;;5015506;28;20068;-68
2021/07/12 03:38:48;;;;;;;9.88;8.88;;;27.00;68.90;;;;;;5017358;28;20736;-68
2021/07/12 03:41:14;;;;;;;9.02;8.13;;;27.20;68.80;;;;;;5034514;28;20022;-68
2021/07/12 03:43:40;;;;;;;11.13;8.77;;;27.50;68.10;;;;;;5014253;28;20068;-68
2021/07/12 03:46:06;;;;;;;9.60;8.73;;;27.80;67.70;;;;;;5015416;28;20060;-68
2021/07/12 03:48:35;;;;;;;9.52;8.52;;;28.20;67.10;;;;;;5015322;28;20441;-68
2021/07/12 03:51:02;;;;;;;10.20;8.75;;;28.60;66.30;;;;;;5015095;28;20034;-66
2021/07/12 03:53:31;;;;;;;9.52;8.63;;;29.20;65.70;;;;;;5015200;28;20037;-66
2021/07/12 03:55:56;;;;;;;10.20;9.23;;;29.80;64.10;;;;;;5025019;28;20469;-67
2021/07/12 03:58:22;;;;;;;8.93;8.13;;;30.40;62.70;;;;;;5034984;28;20033;-68
2021/07/12 04:00:48;;;;;;;8.95;7.85;;;31.10;61.40;;;;;;5034691;28;20040;-66
2021/07/12 04:03:13;;;;;;;8.63;7.82;;;31.90;60.00;;;;;;5034802;28;20469;-66
2021/07/12 04:05:39;;;;;;;8.80;7.90;;;32.50;58.60;;;;;;5034647;28;20021;-66
2021/07/12 04:08:05;;;;;;;8.73;7.35;;;33.20;57.60;;;;;;5034542;28;20029;-66
2021/07/12 04:10:30;;;;;;;8.35;7.63;;;33.80;56.20;;;;;;5034484;28;20033;-66
2021/07/12 04:12:57;;;;;;;8.82;7.72;;;34.20;55.00;;;;;;5034434;28;20465;-66
2021/07/12 04:15:23;;;;;;;8.88;7.78;;;34.20;54.00;;;;;;5034573;28;20025;-66
2021/07/12 04:17:49;;;;;;;8.90;8.00;;;34.00;53.90;;;;;;5033125;28;20064;-66
2021/07/12 04:20:15;;;;;;;9.57;7.90;;;33.50;53.90;;;;;;5033266;28;20026;-67
2021/07/12 04:22:42;;;;;;;9.10;8.18;;;33.10;54.50;;;;;;5032264;28;20470;-68
2021/07/12 04:25:09;;;;;;;10.60;7.63;;;32.80;55.40;;;;;;5033442;28;20029;-68
2021/07/12 04:27:35;;;;;;;10.60;8.00;;;33.00;55.70;;;;;;5034104;28;20017;-68
2021/07/12 04:30:01;;;;;;;8.80;7.93;;;33.30;55.30;;;;;;5034174;28;20029;-66
2021/07/12 04:32:27;;;;;;;8.90;7.47;;;33.50;54.60;;;;;;5034110;28;20071;-66
2021/07/12 04:34:53;;;;;;;8.40;7.60;;;33.50;54.30;;;;;;5017023;28;20484;-68
2021/07/12 04:37:18;;;;;;;9.68;8.68;;;33.30;54.40;;;;;;5014268;28;20030;-66
2021/07/12 04:39:44;;;;;;;9.02;8.13;;;33.20;54.90;;;;;;5013873;28;20069;-66
2021/07/12 04:42:10;;;;;;;8.00;7.20;;;33.40;55.00;;;;;;5020885;28;20028;-67
2021/07/12 04:44:36;;;;;;;8.95;7.90;;;33.70;54.40;;;;;;5015679;28;20034;-67
2021/07/12 04:47:01;;;;;;;8.93;8.02;;;33.90;54.00;;;;;;5017675;28;20496;-67
2021/07/12 04:49:27;;;;;;;9.48;8.23;;;34.00;53.60;;;;;;5014155;28;20105;-67
2021/07/12 04:51:53;;;;;;;8.50;7.70;;;34.20;53.40;;;;;;5033809;28;20025;-67
2021/07/12 04:54:19;;;;;;;10.48;8.10;;;34.50;53.30;;;;;;5032938;28;20489;-68
2021/07/12 04:56:45;;;;;;;9.20;7.40;;;35.00;52.90;;;;;;5033014;28;20025;-68
2021/07/12 04:59:12;;;;;;;9.80;7.85;;;35.60;52.40;;;;;;5020465;28;20021;-68
2021/07/12 05:01:38;;;;;;;8.60;7.82;;;36.20;51.90;;;;;;5026962;28;20371;-68
2021/07/12 05:04:05;;;;;;;9.43;8.50;;;36.70;50.50;;;;;;5025088;28;20037;-68
2021/07/12 05:06:31;;;;;;;8.60;7.90;;;37.10;50.00;;;;;;5026557;28;20104;-68
2021/07/12 05:08:57;;;;;;;8.70;7.90;;;37.50;49.50;;;;;;5034721;28;20086;-68
2021/07/12 05:11:24;;;;;;;8.23;7.53;;;37.80;48.90;;;;;;5028686;28;20034;-68
2021/07/12 05:13:51;;;;;;;8.52;7.72;;;38.10;48.50;;;;;;5028352;28;20461;-68
2021/07/12 05:16:17;;;;;;;8.57;7.78;;;38.40;47.90;;;;;;5032133;28;20068;-68
2021/07/12 05:18:42;;;;;;;9.15;8.25;;;38.70;47.30;;;;;;5033787;28;20076;-68
2021/07/12 05:21:08;;;;;;;8.63;7.82;;;38.80;46.90;;;;;;5027245;28;20018;-68
2021/07/12 05:23:34;;;;;;;8.82;7.93;;;39.00;46.50;;;;;;5028665;28;20055;-68
2021/07/12 05:25:59;;;;;;;8.68;7.90;;;39.10;46.10;;;;;;5029477;28;20382;-67
2021/07/12 05:28:25;;;;;;;9.07;8.18;;;39.10;45.80;;;;;;5031368;28;20569;-68
2021/07/12 05:30:51;;;;;;;9.05;8.32;;;38.80;45.80;;;;;;5031521;28;20083;-68
2021/07/12 05:33:17;;;;;;;10.55;9.57;;;38.20;45.70;;;;;;5030738;28;20421;-68
2021/07/12 05:35:42;;;;;;;10.30;9.20;;;37.40;46.40;;;;;;5021655;28;20041;-66
2021/07/12 05:38:09;;;;;;;9.70;8.80;;;36.60;47.60;;;;;;5023926;28;20036;-66
2021/07/12 05:40:35;;;;;;;9.40;8.60;;;35.70;48.60;;;;;;5049334;28;20044;-68
2021/07/12 05:43:02;;;;;;;10.13;9.13;;;35.00;49.70;;;;;;5035897;28;20067;-69
2021/07/12 05:45:28;;;;;;;11.27;10.02;;;34.40;50.70;;;;;;5028320;28;20029;-69
2021/07/12 05:47:54;;;;;;;10.52;9.63;;;33.90;51.80;;;;;;5010550;28;20148;-68
2021/07/12 05:50:20;;;;;;;10.80;9.80;;;33.50;52.50;;;;;;5023669;28;20116;-69
2021/07/12 05:52:46;;;;;;;11.05;10.00;;;33.20;52.90;;;;;;5012322;28;20112;-69
2021/07/12 05:55:12;;;;;;;10.75;9.77;;;32.80;53.40;;;;;;5019253;28;20529;-68
2021/07/12 05:57:38;;;;;;;11.93;10.20;;;32.50;54.10;;;;;;5018577;28;20025;-68
2021/07/12 06:00:09;;;;;;;11.98;10.88;;;32.20;54.50;;;;;;5018043;28;20470;-69
2021/07/12 06:02:34;;;;;;;11.13;10.13;;;32.00;55.00;;;;;;5017234;28;20071;-66
2021/07/12 06:05:01;;;;;;;13.32;10.82;;;31.70;56.40;;;;;;5033455;28;20644;-67
2021/07/12 06:07:26;;;;;;;11.88;10.88;;;31.40;56.20;;;;;;5020316;28;20409;-67
2021/07/12 06:09:52;;;;;;;11.35;10.27;;;31.20;56.70;;;;;;5020517;28;20033;-66
2021/07/12 06:12:18;;;;;;;12.02;10.80;;;31.00;57.20;;;;;;5014662;28;20061;-67
2021/07/12 06:14:43;;;;;;;12.48;11.30;;;30.80;57.90;;;;;;5013727;28;20041;-64
2021/07/12 06:17:09;;;;;;;12.73;11.32;;;30.60;58.60;;;;;;5017531;28;21201;-66
2021/07/12 06:19:35;;;;;;;12.57;11.40;;;30.50;58.90;;;;;;5016069;28;20069;-68
2021/07/12 06:22:00;;;;;;;11.95;10.85;;;30.50;59.20;;;;;;5014947;28;20057;-66
2021/07/12 06:24:26;;;;;;;12.75;11.55;;;30.50;59.70;;;;;;5013014;28;20865;-66
2021/07/12 06:26:52;;;;;;;12.13;10.93;;;30.50;60.00;;;;;;5018182;28;20052;-67
2021/07/12 06:29:20;;;;;;;12.55;11.35;;;30.40;60.20;;;;;;5011571;28;20029;-67
2021/07/12 06:31:46;;;;;;;12.52;11.32;;;30.40;61.20;;;;;;5013535;28;20041;-67
2021/07/12 06:34:12;;;;;;;13.15;11.90;;;30.30;60.70;;;;;;5011781;28;20042;-68
2021/07/12 06:36:38;;;;;;;12.52;11.38;;;30.30;61.20;;;;;;5021146;28;20048;-67
2021/07/12 06:39:04;;;;;;;12.90;11.60;;;30.20;61.20;;;;;;5013020;28;20033;-66
2021/07/12 06:41:29;;;;;;;12.93;11.73;;;30.10;61.30;;;;;;5013225;28;20025;-68
2021/07/12 06:43:56;;;;;;;12.63;11.38;;;30.00;61.40;;;;;;5014219;28;20030;-68
2021/07/12 06:46:22;;;;;;;12.35;11.10;;;29.90;61.40;;;;;;5015380;28;20029;-67
2021/07/12 06:48:47;;;;;;;12.38;11.27;;;29.80;61.60;;;;;;5012517;28;20116;-68
2021/07/12 06:51:13;;;;;;;13.93;12.13;;;29.60;62.10;;;;;;5013470;28;20034;-66
2021/07/12 06:53:39;;;;;;;12.55;11.25;;;29.60;62.40;;;;;;5011799;28;20028;-68
2021/07/12 06:56:04;;;;;;;12.75;11.55;;;29.50;62.50;;;;;;5019491;28;20093;-67
2021/07/12 06:58:30;;;;;;;12.93;11.73;;;29.50;62.70;;;;;;5024221;28;20057;-68
2021/07/12 07:00:56;;;;;;;12.98;11.70;;;29.50;63.10;;;;;;5013094;28;20076;-67
2021/07/12 07:03:22;;;;;;;13.77;11.55;;;29.50;63.40;;;;;;5014964;28;20044;-67
2021/07/12 07:05:48;;;;;;;13.35;11.95;;;29.50;63.50;;;;;;5016203;28;20025;-67
2021/07/12 07:08:13;;;;;;;12.43;11.23;;;29.60;63.60;;;;;;5023338;28;20041;-66
2021/07/12 07:10:39;;;;;;;12.60;11.40;;;29.70;64.20;;;;;;5021086;28;20033;-66
2021/07/12 07:13:05;;;;;;;12.90;11.50;;;29.70;63.90;;;;;;5016166;28;20014;-66
2021/07/12 07:15:30;;;;;;;12.25;11.00;;;29.80;63.80;;;;;;5018495;28;20420;-65
2021/07/12 07:17:56;;;;;;;13.43;12.23;;;29.80;63.70;;;;;;5016271;28;20409;-67
2021/07/12 07:20:22;;;;;;;13.20;11.90;;;29.80;63.80;;;;;;5022652;28;20038;-66
2021/07/12 07:22:48;;;;;;;13.55;12.18;;;29.80;64.10;;;;;;5020172;28;20026;-67
2021/07/12 07:25:14;;;;;;;13.20;11.77;;;29.90;63.90;;;;;;5015591;28;20067;-66
2021/07/12 07:27:40;;;;;;;13.18;11.98;;;30.00;64.00;;;;;;5019336;28;20124;-67
2021/07/12 07:30:07;;;;;;;13.10;11.75;;;30.00;63.40;;;;;;5015235;28;20034;-67
2021/07/12 07:32:33;;;;;;;13.27;12.07;;;30.10;63.50;;;;;;5016406;28;20315;-66
2021/07/12 07:34:59;;;;;;;13.45;12.05;;;30.10;63.30;;;;;;5017941;28;20754;-66
2021/07/12 07:37:25;;;;;;;12.10;11.05;;;30.10;64.00;;;;;;5015254;28;20037;-67
2021/07/12 07:39:50;;;;;;;13.48;12.13;;;30.20;64.00;;;;;;5011537;28;20045;-67
2021/07/12 07:42:16;;;;;;;13.07;11.65;;;30.20;64.20;;;;;;5012519;28;20125;-66
2021/07/12 07:44:42;;;;;;;12.65;11.45;;;30.20;64.00;;;;;;5015254;28;20034;-66
2021/07/12 07:47:09;;;;;;;11.68;10.68;;;30.20;64.30;;;;;;5014483;28;20075;-66
2021/07/12 07:49:35;;;;;;;12.60;11.40;;;30.20;64.60;;;;;;5008430;28;20048;-67
2021/07/12 07:52:01;;;;;;;11.93;10.75;;;30.30;64.50;;;;;;5011569;28;20480;-67
2021/07/12 07:54:27;;;;;;;12.32;11.23;;;30.40;64.60;;;;;;5013308;28;20045;-65
2021/07/12 07:56:53;;;;;;;12.73;11.52;;;30.40;63.70;;;;;;5012913;28;20041;-67
2021/07/12 07:59:18;;;;;;;11.48;10.43;;;30.40;63.60;;;;;;5010962;28;20044;-65
2021/07/12 08:01:44;;;;;;;11.93;10.82;;;30.50;63.60;;;;;;5011882;28;20037;-67
2021/07/12 08:04:10;;;;;;;10.43;9.43;;;30.60;63.90;;;;;;5011367;28;20033;-68
2021/07/12 08:06:35;;;;;;;11.63;10.52;;;30.60;63.70;;;;;;5012330;28;20402;-66
2021/07/12 08:09:01;;;;;;;11.85;10.77;;;30.60;63.60;;;;;;5011732;28;20040;-66
2021/07/12 08:11:27;;;;;;;11.38;10.27;;;30.70;63.40;;;;;;5008996;28;20029;-67
2021/07/12 08:13:53;;;;;;;10.65;9.65;;;30.70;63.30;;;;;;5015214;28;20033;-66
2021/07/12 08:16:18;;;;;;;9.68;8.65;;;30.70;63.20;;;;;;5013977;28;20025;-68
2021/07/12 08:18:44;;;;;;;10.10;8.90;;;30.60;62.60;;;;;;5016880;28;20043;-66
2021/07/12 08:21:11;;;;;;;9.80;8.90;;;30.50;61.90;;;;;;5013423;28;20363;-68
2021/07/12 08:23:40;;;;;;;9.68;8.65;;;30.40;60.90;;;;;;5012242;28;20028;-66
2021/07/12 08:26:07;;;;;;;10.07;9.13;;;30.40;61.00;;;;;;5011353;28;20466;-67
2021/07/12 08:28:32;;;;;;;11.63;10.52;;;30.30;61.80;;;;;;5015492;28;20775;-66
2021/07/12 08:30:58;;;;;;;10.65;9.65;;;30.20;61.90;;;;;;5009741;28;20087;-67
2021/07/12 08:33:24;;;;;;;10.90;9.68;;;30.10;62.30;;;;;;5007621;28;20040;-68
2021/07/12 08:35:49;;;;;;;10.70;9.57;;;30.00;62.50;;;;;;5010815;28;20041;-66
2021/07/12 08:38:15;;;;;;;10.73;9.73;;;30.00;63.00;;;;;;5011930;28;20312;-64
2021/07/12 08:40:41;;;;;;;11.45;9.90;;;29.90;63.20;;;;;;5009655;28;20029;-66
2021/07/12 08:43:07;;;;;;;10.48;9.48;;;29.90;63.20;;;;;;5013762;28;20082;-66
2021/07/12 08:45:33;;;;;;;10.15;9.15;;;29.80;62.90;;;;;;5013945;28;20036;-66
2021/07/12 08:47:58;;;;;;;10.70;9.60;;;29.80;63.20;;;;;;5012129;28;20030;-65
2021/07/12 08:50:26;;;;;;;10.98;9.85;;;29.70;63.30;;;;;;5012823;28;20121;-67
2021/07/12 08:52:53;;;;;;;11.48;10.38;;;29.70;62.90;;;;;;5015443;28;20033;-67
2021/07/12 08:55:19;;;;;;;10.35;9.02;;;29.70;63.20;;;;;;5013429;28;20036;-67
2021/07/12 08:57:59;;;;;;;10.93;9.82;;;29.70;62.90;;;;;;5011312;28;20112;-66
2021/07/12 09:00:50;;;;;;;11.00;10.00;;;29.70;62.70;;;;;;5008620;28;20029;-67
2021/07/12 09:03:27;;;;;;;10.20;9.23;;;29.60;62.70;;;;;;5018151;28;20117;-67
2021/07/12 09:05:54;;;;;;;11.27;10.15;;;29.60;63.00;;;;;;5015388;28;20071;-68
2021/07/12 09:08:51;;;;;;;10.73;9.63;;;29.50;63.60;;;;;;5007018;28;20449;-68
2021/07/12 09:11:38;;;;;;;12.48;10.07;;;29.50;63.40;;;;;;5015133;28;20033;-66
2021/07/12 09:14:12;;;;;;;10.07;9.18;;;29.50;63.60;;;;;;5006284;28;20029;-67
2021/07/12 09:16:40;;;;;;;10.95;9.98;;;29.50;63.40;;;;;;5013359;28;20057;-66
2021/07/12 09:19:12;;;;;;;11.23;10.10;;;29.40;63.70;;;;;;5013912;28;20041;-68
2021/07/12 09:21:40;;;;;;;11.93;10.73;;;29.40;63.90;;;;;;5012295;28;20049;-67
2021/07/12 09:24:17;;;;;;;11.07;10.07;;;29.40;64.10;;;;;;5008133;28;20034;-67
2021/07/12 09:26:48;;;;;;;11.18;10.05;;;29.30;64.50;;;;;;5006704;28;20473;-67
2021/07/12 09:29:23;;;;;;;11.50;10.38;;;29.30;64.50;;;;;;5005966;28;20082;-67
2021/07/12 09:31:49;;;;;;;11.38;10.23;;;29.30;64.70;;;;;;5010673;28;20045;-67
2021/07/12 09:34:15;;;;;;;12.05;10.88;;;29.20;64.70;;;;;;5017566;28;20783;-68
2021/07/12 09:36:42;;;;;;;12.18;10.88;;;29.20;65.00;;;;;;5012899;28;20021;-68
2021/07/12 09:39:43;;;;;;;12.82;11.52;;;29.20;65.30;;;;;;5013560;28;20056;-67
2021/07/12 09:42:10;;;;;;;11.32;10.23;;;29.20;65.20;;;;;;5012337;28;20029;-66
2021/07/12 09:44:39;;;;;;;10.95;9.95;;;29.20;65.20;;;;;;5019676;28;20030;-66
2021/07/12 09:47:08;;;;;;;11.63;10.52;;;29.20;65.60;;;;;;5012846;28;20024;-66
2021/07/12 09:49:34;;;;;;;10.20;9.25;;;29.20;65.40;;;;;;5020919;28;20037;-66
2021/07/12 09:52:02;;;;;;;10.98;9.98;;;29.20;65.10;;;;;;5018142;28;20386;-67
2021/07/12 09:54:35;;;;;;;11.35;10.27;;;29.20;65.40;;;;;;5015561;28;20029;-67
2021/07/12 09:57:04;;;;;;;10.43;9.43;;;29.20;65.20;;;;;;5012860;28;20037;-67
2021/07/12 09:59:30;;;;;;;10.80;9.80;;;29.20;65.10;;;;;;5002155;28;20065;-67
2021/07/12 10:01:56;;;;;;;11.40;10.20;;;29.20;65.00;;;;;;5007251;28;20820;-66
2021/07/12 10:04:24;;;;;;;11.00;10.00;;;29.20;65.10;;;;;;5010130;28;20043;-66
2021/07/12 10:06:52;;;;;;;10.82;9.73;;;29.30;65.20;;;;;;5011769;28;20026;-67
2021/07/12 10:09:22;;;;;;;10.77;9.68;;;29.30;65.20;;;;;;5015079;28;20037;-68
2021/07/12 10:11:53;;;;;;;11.02;10.02;;;29.20;65.20;;;;;;5018737;28;20034;-67
2021/07/12 10:14:20;;;;;;;11.18;10.07;;;29.20;65.30;;;;;;5015046;28;20044;-67
2021/07/12 10:16:46;;;;;;;10.50;9.50;;;29.20;65.30;;;;;;5008120;28;20095;-67
2021/07/12 10:19:12;;;;;;;10.05;9.05;;;29.20;65.80;;;;;;5015844;28;20046;-67
2021/07/12 10:21:46;;;;;;;10.73;9.63;;;29.20;65.80;;;;;;5015126;28;20359;-67
2021/07/12 10:24:12;;;;;;;9.57;8.68;;;29.20;66.00;;;;;;5018004;28;20029;-68
2021/07/12 10:26:49;;;;;;;9.68;8.68;;;29.20;65.30;;;;;;5013277;28;20038;-68
2021/07/12 10:29:22;;;;;;;9.65;8.75;;;29.20;64.80;;;;;;5023180;28;20477;-67
2021/07/12 10:32:04;;;;;;;8.90;8.05;;;29.20;64.30;;;;;;5014549;28;20057;-67
2021/07/12 10:34:46;;;;;;;9.13;8.07;;;29.20;64.10;;;;;;5013480;28;20033;-67
2021/07/12 10:37:14;;;;;;;9.50;8.60;;;29.20;64.00;;;;;;5021845;28;20120;-67
2021/07/12 10:40:06;;;;;;;9.55;8.65;;;29.20;63.50;;;;;;5017700;28;20469;-67
2021/07/12 10:42:44;;;;;;;8.80;8.00;;;29.20;63.00;;;;;;5015052;28;20163;-67
2021/07/12 10:45:13;;;;;;;9.18;8.27;;;29.20;63.10;;;;;;5012863;28;20068;-67
2021/07/12 10:47:57;;;;;;;8.57;7.78;;;29.20;62.70;;;;;;5023064;28;20049;-67
2021/07/12 10:50:42;;;;;;;8.73;7.82;;;29.20;62.20;;;;;;5021333;28;20400;-67
2021/07/12 10:53:14;;;;;;;8.32;7.53;;;29.20;62.30;;;;;;5014450;28;20048;-67
2021/07/12 10:55:41;;;;;;;8.68;7.88;;;29.20;62.10;;;;;;5012458;28;20393;-66
2021/07/12 10:58:19;;;;;;;8.15;7.35;;;29.20;61.90;;;;;;5012173;28;20038;-67
2021/07/12 11:00:46;;;;;;;8.20;7.50;;;29.20;61.90;;;;;;5006679;28;21471;-69
2021/07/12 11:03:41;;;;;;;8.70;7.90;;;29.20;62.30;;;;;;5013102;28;20061;-68
2021/07/12 11:06:20;;;;;;;8.75;7.88;;;29.20;61.90;;;;;;5012799;28;20021;-67
2021/07/12 11:08:49;;;;;;;8.77;7.63;;;29.20;61.80;;;;;;5012905;28;20076;-68
2021/07/12 11:11:24;;;;;;;8.65;7.85;;;29.30;61.70;;;;;;5020628;28;20535;-68
2021/07/12 11:14:05;;;;;;;9.88;7.80;;;29.30;61.60;;;;;;5009830;28;20041;-66
2021/07/12 11:16:42;;;;;;;8.38;7.45;;;29.20;61.60;;;;;;5012644;28;20036;-65
2021/07/12 11:19:28;;;;;;;8.15;7.38;;;29.30;61.90;;;;;;5007760;28;20045;-65
2021/07/12 11:22:14;;;;;;;8.05;7.25;;;29.30;61.90;;;;;;5005740;28;20030;-67
2021/07/12 11:24:59;;;;;;;7.90;7.20;;;29.30;61.50;;;;;;5010366;28;20030;-67
2021/07/12 11:27:40;;;;;;;8.25;7.45;;;29.30;61.60;;;;;;5005860;28;20117;-66
2021/07/12 11:30:26;;;;;;;8.02;7.22;;;29.40;61.30;;;;;;5011687;28;20092;-68
2021/07/12 11:32:52;;;;;;;9.15;7.38;;;29.40;61.00;;;;;;5003478;28;20053;-65
2021/07/12 11:35:18;;;;;;;8.07;7.28;;;29.40;61.00;;;;;;5017085;28;20159;-66
2021/07/12 11:37:44;;;;;;;8.23;7.38;;;29.50;61.10;;;;;;5017178;28;20029;-66
2021/07/12 11:40:10;;;;;;;8.68;7.75;;;29.50;60.90;;;;;;5015725;28;20047;-68
2021/07/12 11:42:39;;;;;;;8.13;7.32;;;29.60;60.70;;;;;;5009847;28;20049;-68
2021/07/12 11:45:11;;;;;;;7.80;7.05;;;29.60;60.90;;;;;;5015304;28;20122;-68
2021/07/12 11:47:40;;;;;;;7.93;7.13;;;29.60;60.70;;;;;;5012781;28;20025;-66
2021/07/12 11:50:16;;;;;;;8.85;7.95;;;29.70;61.00;;;;;;5010600;28;20136;-65
2021/07/12 11:52:46;;;;;;;8.70;7.28;;;29.80;61.30;;;;;;5011870;28;20037;-68
2021/07/12 11:55:13;;;;;;;8.02;7.22;;;29.80;60.80;;;;;;5013443;28;20032;-68
2021/07/12 11:57:40;;;;;;;7.60;6.90;;;29.90;60.80;;;;;;5017430;28;20025;-68
2021/07/12 12:00:09;;;;;;;7.82;7.03;;;30.00;60.00;;;;;;5008853;28;20025;-65
2021/07/12 12:02:35;;;;;;;8.52;7.25;;;30.00;59.70;;;;;;5017306;28;20029;-68
2021/07/12 12:05:02;;;;;;;7.40;6.70;;;30.10;59.20;;;;;;5011502;28;20047;-68
2021/07/12 12:07:28;;;;;;;7.60;6.82;;;30.10;59.10;;;;;;5013705;28;20033;-67
2021/07/12 12:09:58;;;;;;;8.32;6.88;;;30.10;59.60;;;;;;5010172;28;20037;-69
2021/07/12 12:12:31;;;;;;;7.00;6.30;;;30.20;59.80;;;;;;5009238;28;20038;-66
2021/07/12 12:15:03;;;;;;;8.25;7.55;;;30.20;59.00;;;;;;5006814;28;20044;-66
2021/07/12 12:17:29;;;;;;;8.10;7.30;;;30.30;59.30;;;;;;5005288;28;20484;-66
2021/07/12 12:20:07;;;;;;;8.10;7.20;;;30.30;59.90;;;;;;5006854;28;20040;-66
2021/07/12 12:22:33;;;;;;;8.20;7.40;;;30.30;60.80;;;;;;5014622;28;20060;-66
2021/07/12 12:25:00;;;;;;;8.35;6.82;;;30.40;60.40;;;;;;5007585;28;20770;-67
2021/07/12 12:27:25;;;;;;;6.90;6.30;;;30.40;60.60;;;;;;5013200;28;20033;-67
2021/07/12 12:29:51;;;;;;;8.73;6.90;;;30.50;61.00;;;;;;5014374;28;20561;-67
2021/07/12 12:32:34;;;;;;;7.95;7.25;;;30.50;60.90;;;;;;5012334;28;20036;-68
2021/07/12 12:35:02;;;;;;;10.25;9.20;;;30.60;60.90;;;;;;5011659;28;20151;-66
2021/07/12 12:37:39;;;;;;;10.23;9.00;;;30.60;62.10;;;;;;5012837;28;20056;-66
2021/07/12 12:40:19;;;;;;;10.85;8.93;;;30.60;62.80;;;;;;5011534;28;20498;-68
2021/07/12 12:42:47;;;;;;;10.13;8.95;;;30.50;63.10;;;;;;5010873;28;20914;-67
2021/07/12 12:45:26;;;;;;;9.93;9.02;;;30.50;63.60;;;;;;5001508;28;20026;-66
2021/07/12 12:47:53;;;;;;;11.77;9.13;;;30.40;63.50;;;;;;5008986;28;20025;-68
2021/07/12 12:50:20;;;;;;;9.68;8.77;;;30.30;63.10;;;;;;5010726;28;20074;-67
2021/07/12 12:52:45;;;;;;;9.68;8.77;;;30.20;63.00;;;;;;5011267;28;20033;-67